Time;durP1;ratioP1;P1;durP2;ratioP2;P2;SDS_P1;SDS_P2;PMS_P1;PMS_P2;Temp;Humidity;BMP_temperature;BMP_pressure;BME280_temperature;BME280_humidity;BME280_pressure;Samples;Min_cycle;Max_cycle;Signal;HPM_P1;HPM_P2
2023/02/17 00:00:22;;;;;;;48.03;22.98;;;;;;;5.03;56.12;100880.56;5033783;28;20057;-61
2023/02/17 00:02:48;;;;;;;56.47;24.83;;;;;;;5.04;56.54;100879.63;5033317;28;20038;-61
2023/02/17 00:05:14;;;;;;;52.40;24.95;;;;;;;5.06;56.71;100879.53;5030786;28;20517;-62
2023/02/17 00:07:39;;;;;;;43.97;23.33;;;;;;;5.14;56.58;100874.63;5035214;28;20029;-61
2023/02/17 00:10:06;;;;;;;49.55;24.30;;;;;;;4.93;57.15;100871.59;5033649;28;20063;-61
2023/02/17 00:12:31;;;;;;;45.22;22.50;;;;;;;4.92;56.84;100879.56;5032671;28;20231;-61
2023/02/17 00:14:56;;;;;;;40.67;20.67;;;;;;;4.85;55.97;100866.00;5033017;28;20045;-61
2023/02/17 00:17:22;;;;;;;45.22;24.23;;;;;;;4.82;56.02;100859.16;5031844;28;20047;-63
2023/02/17 00:19:47;;;;;;;41.15;22.40;;;;;;;4.75;56.85;100870.16;5032691;28;20270;-61
2023/02/17 00:22:13;;;;;;;49.03;24.60;;;;;;;4.89;55.94;100864.03;5033841;28;20033;-62
2023/02/17 00:24:39;;;;;;;38.67;21.33;;;;;;;4.98;55.48;100864.28;5033430;28;20238;-62
2023/02/17 00:27:05;;;;;;;40.80;21.48;;;;;;;4.95;55.53;100861.84;5033831;28;20052;-63
2023/02/17 00:29:32;;;;;;;38.17;19.23;;;;;;;4.89;54.73;100862.25;5032126;28;20037;-63
2023/02/17 00:31:57;;;;;;;39.75;20.27;;;;;;;4.57;55.05;100866.91;5032515;28;20312;-61
2023/02/17 00:34:23;;;;;;;42.63;19.98;;;;;;;4.57;53.96;100860.81;5033321;28;20323;-61
2023/02/17 00:36:48;;;;;;;38.28;18.88;;;;;;;4.64;53.85;100865.59;5033990;28;20041;-61
2023/02/17 00:39:15;;;;;;;32.25;18.00;;;;;;;4.52;53.61;100868.97;5032863;28;20045;-63
2023/02/17 00:41:41;;;;;;;35.28;18.45;;;;;;;4.42;53.45;100863.47;5033213;28;20045;-63
2023/02/17 00:44:07;;;;;;;38.97;19.17;;;;;;;4.55;53.36;100867.94;5033401;28;20378;-61
2023/02/17 00:46:32;;;;;;;38.67;20.05;;;;;;;4.56;53.86;100859.97;5033102;28;20064;-61
2023/02/17 00:48:57;;;;;;;40.35;23.35;;;;;;;4.67;54.37;100851.44;5031589;28;20335;-61
2023/02/17 00:51:24;;;;;;;39.13;25.58;;;;;;;4.63;55.07;100842.06;5030233;28;20033;-61
2023/02/17 00:53:50;;;;;;;46.13;24.92;;;;;;;4.66;54.78;100829.59;5032457;28;20037;-60
2023/02/17 00:56:16;;;;;;;41.38;24.33;;;;;;;4.65;54.87;100832.31;5032802;28;20339;-62
2023/02/17 00:58:41;;;;;;;44.92;24.17;;;;;;;4.70;54.66;100822.38;5030712;28;20041;-63
2023/02/17 01:01:08;;;;;;;45.83;23.10;;;;;;;4.79;54.40;100824.41;5033428;28;20038;-61
2023/02/17 01:03:33;;;;;;;42.28;22.02;;;;;;;4.77;54.63;100827.13;5032400;28;20343;-62
2023/02/17 01:06:08;;;;;;;44.33;23.17;;;;;;;4.71;53.73;100818.81;5034046;28;20131;-63
2023/02/17 01:08:34;;;;;;;36.08;19.38;;;;;;;4.44;53.76;100819.63;5033416;28;20040;-63
2023/02/17 01:11:00;;;;;;;41.55;20.58;;;;;;;4.46;54.22;100812.50;5032784;28;20037;-62
2023/02/17 01:13:25;;;;;;;41.35;21.38;;;;;;;4.34;53.97;100830.78;5033596;28;20029;-61
2023/02/17 01:15:52;;;;;;;134.07;53.58;;;;;;;4.29;54.89;100820.59;5034922;28;20109;-63
2023/02/17 01:18:21;;;;;;;50.50;27.10;;;;;;;4.30;54.86;100808.31;5033214;28;20056;-63
2023/02/17 01:20:46;;;;;;;44.67;23.20;;;;;;;4.39;54.58;100815.63;5032786;28;20045;-61
2023/02/17 01:23:13;;;;;;;38.97;20.33;;;;;;;4.43;53.71;100811.84;5032551;28;20037;-61
2023/02/17 01:25:41;;;;;;;115.68;46.33;;;;;;;4.48;54.27;100809.78;5031822;28;20136;-61
2023/02/17 01:28:07;;;;;;;47.80;24.08;;;;;;;4.54;54.12;100806.78;5032830;28;20097;-63
2023/02/17 01:30:33;;;;;;;53.85;25.52;;;;;;;4.56;54.19;100802.28;5037731;28;20262;-63
2023/02/17 01:32:59;;;;;;;54.38;25.02;;;;;;;4.43;55.17;100804.00;5037522;28;20041;-61
2023/02/17 01:35:24;;;;;;;45.25;24.73;;;;;;;4.51;55.11;100806.13;5035755;28;20091;-62
2023/02/17 01:37:50;;;;;;;56.70;27.67;;;;;;;4.54;54.90;100785.78;5036553;28;20067;-61
2023/02/17 01:40:16;;;;;;;65.13;31.80;;;;;;;4.49;55.20;100783.47;5035982;28;20223;-63
2023/02/17 01:42:41;;;;;;;57.78;25.55;;;;;;;4.52;54.91;100778.97;5036381;28;20052;-62
2023/02/17 01:45:18;;;;;;;47.25;23.83;;;;;;;4.49;55.13;100782.63;5036250;28;21027;-61
2023/02/17 01:47:50;;;;;;;48.92;23.83;;;;;;;4.44;54.41;100782.06;5037077;28;20099;-61
2023/02/17 01:50:21;;;;;;;45.85;23.77;;;;;;;4.47;54.38;100774.00;5036488;28;20092;-61
2023/02/17 01:52:47;;;;;;;45.92;23.77;;;;;;;4.40;55.30;100777.97;5036831;28;20037;-63
2023/02/17 01:55:18;;;;;;;72.68;37.03;;;;;;;4.31;55.84;100768.91;5036247;28;20266;-62
2023/02/17 01:57:46;;;;;;;66.10;28.60;;;;;;;4.34;55.35;100758.22;5036969;28;20033;-61
2023/02/17 02:00:13;;;;;;;83.57;36.55;;;;;;;4.31;55.05;100761.03;5032334;28;20037;-61
2023/02/17 02:02:42;;;;;;;87.30;36.50;;;;;;;4.26;55.85;100755.25;5035709;28;20300;-63
2023/02/17 02:05:08;;;;;;;139.82;52.25;;;;;;;4.21;56.24;100754.69;5036558;28;20219;-63
2023/02/17 02:07:37;;;;;;;108.95;47.83;;;;;;;4.26;56.07;100767.50;5035987;28;20036;-61
2023/02/17 02:10:03;;;;;;;70.80;34.55;;;;;;;4.09;56.21;100765.91;5035104;28;20482;-61
2023/02/17 02:12:32;;;;;;;58.58;29.02;;;;;;;4.14;56.45;100754.19;5036133;28;20057;-61
2023/02/17 02:15:02;;;;;;;47.15;24.98;;;;;;;4.30;56.11;100758.50;5036014;28;20200;-61
2023/02/17 02:17:42;;;;;;;51.22;23.80;;;;;;;4.30;55.97;100761.97;5033334;28;20108;-63
2023/02/17 02:20:35;;;;;;;52.05;23.38;;;;;;;4.39;55.90;100750.91;5035709;28;20156;-61
2023/02/17 02:23:15;;;;;;;38.53;21.55;;;;;;;4.27;55.98;100756.09;5032438;28;20068;-61
2023/02/17 02:26:12;;;;;;;44.60;22.08;;;;;;;4.20;56.55;100749.53;5034627;28;20045;-61
2023/02/17 02:28:54;;;;;;;37.50;20.00;;;;;;;4.16;56.56;100751.50;5033769;28;20108;-62
2023/02/17 02:31:20;;;;;;;43.38;22.98;;;;;;;3.99;57.08;100762.19;5033109;28;20048;-62
2023/02/17 02:33:59;;;;;;;38.90;21.83;;;;;;;4.03;57.22;100754.03;5035650;28;20071;-61
2023/02/17 02:37:03;;;;;;;34.45;17.70;;;;;;;4.04;57.51;100755.72;5034949;28;20044;-62
2023/02/17 02:39:34;;;;;;;39.88;20.05;;;;;;;3.96;57.72;100762.38;5032190;28;20052;-63
2023/02/17 02:42:04;;;;;;;45.45;23.20;;;;;;;3.97;57.98;100762.28;5032182;28;20343;-61
2023/02/17 02:44:29;;;;;;;67.13;29.75;;;;;;;4.13;57.49;100754.31;5034102;28;20037;-60
2023/02/17 02:47:02;;;;;;;46.38;22.10;;;;;;;4.20;57.09;100752.16;5034885;28;20033;-64
2023/02/17 02:49:29;;;;;;;35.30;18.33;;;;;;;4.25;56.43;100756.19;5034837;28;20067;-63
2023/02/17 02:52:23;;;;;;;37.60;20.60;;;;;;;4.09;56.90;100752.81;5033319;28;20034;-61
2023/02/17 02:54:48;;;;;;;29.85;15.82;;;;;;;3.80;57.31;100749.38;5033309;28;20088;-61
2023/02/17 02:57:43;;;;;;;38.28;17.60;;;;;;;3.65;58.07;100751.16;5034265;28;20045;-60
2023/02/17 03:00:23;;;;;;;28.83;16.55;;;;;;;3.69;58.43;100759.66;5034289;28;20167;-63
2023/02/17 03:02:57;;;;;;;29.60;15.98;;;;;;;3.58;58.04;100755.09;5033401;28;20046;-61
2023/02/17 03:05:23;;;;;;;;;;;;;;;3.52;58.27;100758.91;5034865;28;20061;-60
2023/02/17 03:07:59;;;;;;;30.42;16.67;;;;;;;3.39;58.85;100759.75;5034932;28;19925;-61
2023/02/17 03:10:25;;;;;;;34.88;17.15;;;;;;;3.30;58.72;100755.91;5034878;28;20327;-62
2023/02/17 03:12:51;;;;;;;31.65;17.00;;;;;;;3.42;57.44;100760.41;5035019;28;20041;-62
2023/02/17 03:15:28;;;;;;;30.80;16.75;;;;;;;3.52;57.54;100755.47;5034996;28;20335;-61
2023/02/17 03:17:58;;;;;;;34.63;18.92;;;;;;;3.56;56.85;100763.97;5033167;28;20037;-62
2023/02/17 03:20:25;;;;;;;38.08;19.92;;;;;;;3.52;55.32;100758.06;5035473;28;20360;-61
2023/02/17 03:22:50;;;;;;;47.85;20.83;;;;;;;3.39;55.37;100750.13;5035522;28;20128;-62
2023/02/17 03:25:16;;;;;;;38.00;19.30;;;;;;;3.06;57.44;100752.06;5034318;28;20033;-61
2023/02/17 03:27:41;;;;;;;38.60;18.48;;;;;;;2.88;59.85;100754.84;5033400;28;20040;-61
2023/02/17 03:30:08;;;;;;;39.95;19.95;;;;;;;3.06;59.96;100759.94;5033283;28;20398;-61
2023/02/17 03:32:34;;;;;;;37.38;18.42;;;;;;;3.29;59.43;100753.38;5034341;28;20033;-62
2023/02/17 03:34:59;;;;;;;36.92;17.83;;;;;;;3.49;58.85;100750.41;5029915;28;20045;-63
2023/02/17 03:37:25;;;;;;;34.72;17.65;;;;;;;3.39;58.78;100759.75;5029974;28;20223;-62
2023/02/17 03:39:50;;;;;;;32.80;16.95;;;;;;;3.25;59.24;100764.97;5034172;28;20035;-61
2023/02/17 03:42:15;;;;;;;36.67;17.13;;;;;;;3.11;60.59;100757.88;5033170;28;20041;-61
2023/02/17 03:44:41;;;;;;;34.85;16.42;;;;;;;3.35;59.44;100761.69;5034041;28;20045;-63
2023/02/17 03:47:06;;;;;;;34.63;17.27;;;;;;;3.28;59.49;100773.47;5033384;28;20042;-63
2023/02/17 03:49:32;;;;;;;39.08;19.98;;;;;;;2.86;61.10;100772.38;5033539;28;20041;-61
2023/02/17 03:51:58;;;;;;;44.30;20.45;;;;;;;2.97;61.17;100763.09;5033059;28;20266;-61
2023/02/17 03:54:24;;;;;;;41.92;18.67;;;;;;;2.87;61.79;100760.16;5033407;28;20374;-61
2023/02/17 03:56:50;;;;;;;80.18;29.60;;;;;;;3.08;60.82;100758.91;5031955;28;20092;-62
2023/02/17 03:59:15;;;;;;;62.58;25.85;;;;;;;3.12;60.20;100768.28;5032956;28;20320;-63
2023/02/17 04:01:41;;;;;;;127.93;45.42;;;;;;;3.30;59.83;100770.75;5033356;28;20259;-60
2023/02/17 04:04:06;;;;;;;91.03;36.15;;;;;;;3.38;59.52;100764.13;5034199;28;20037;-61
2023/02/17 04:06:32;;;;;;;38.15;18.73;;;;;;;3.34;59.75;100761.78;5033793;28;20049;-61
2023/02/17 04:08:57;;;;;;;37.22;17.20;;;;;;;3.24;59.72;100755.41;5033987;28;20052;-63
2023/02/17 04:11:22;;;;;;;35.53;17.58;;;;;;;3.23;59.70;100759.81;5033214;28;20207;-61
2023/02/17 04:13:48;;;;;;;34.90;17.20;;;;;;;3.04;59.80;100752.16;5033506;28;20041;-60
2023/02/17 04:16:13;;;;;;;33.47;16.48;;;;;;;2.80;61.32;100748.34;5032949;28;20385;-61
2023/02/17 04:18:39;;;;;;;32.72;17.70;;;;;;;2.82;61.27;100759.56;5034920;28;20294;-61
2023/02/17 04:21:05;;;;;;;37.30;18.38;;;;;;;2.35;61.04;100765.72;5033396;28;20043;-63
2023/02/17 04:23:30;;;;;;;37.17;18.50;;;;;;;2.18;62.06;100752.72;5032971;28;20025;-62
2023/02/17 04:25:56;;;;;;;32.50;17.05;;;;;;;2.39;62.16;100753.31;5029944;28;20224;-61
2023/02/17 04:28:21;;;;;;;32.40;17.77;;;;;;;2.61;61.80;100751.19;5033383;28;20073;-61
2023/02/17 04:30:49;;;;;;;42.35;18.60;;;;;;;2.82;60.72;100757.81;5034548;28;20787;-63
2023/02/17 04:33:15;;;;;;;42.45;22.88;;;;;;;2.77;60.53;100769.47;5033688;28;20068;-63
2023/02/17 04:35:41;;;;;;;42.17;20.60;;;;;;;2.60;60.85;100762.56;5033559;28;20064;-62
2023/02/17 04:38:07;;;;;;;41.45;19.95;;;;;;;2.70;60.54;100758.50;5031778;28;20247;-60
2023/02/17 04:40:33;;;;;;;36.20;17.95;;;;;;;2.84;60.54;100752.47;5034058;28;20038;-63
2023/02/17 04:42:58;;;;;;;37.40;18.48;;;;;;;3.06;59.91;100758.16;5033108;28;20025;-62
2023/02/17 04:45:24;;;;;;;36.67;18.17;;;;;;;3.15;59.55;100752.41;5033968;28;20561;-61
2023/02/17 04:47:50;;;;;;;36.40;17.98;;;;;;;3.30;59.07;100755.91;5031737;28;20349;-61
2023/02/17 04:50:15;;;;;;;36.35;21.00;;;;;;;3.19;59.23;100742.59;5032330;28;20041;-63
2023/02/17 04:52:41;;;;;;;48.58;25.17;;;;;;;3.14;59.73;100742.88;5032870;28;20079;-63
2023/02/17 04:55:07;;;;;;;40.85;22.48;;;;;;;3.29;59.24;100756.00;5032922;28;20045;-61
2023/02/17 04:57:33;;;;;;;48.80;25.15;;;;;;;3.36;58.36;100744.22;5031422;28;20450;-61
2023/02/17 04:59:59;;;;;;;47.85;23.30;;;;;;;3.31;58.74;100749.72;5032893;28;20382;-62
2023/02/17 05:02:25;;;;;;;49.95;24.73;;;;;;;3.31;58.77;100741.03;5032051;28;20101;-62
2023/02/17 05:04:52;;;;;;;44.05;23.17;;;;;;;3.05;59.31;100747.78;5034778;28;20069;-60
2023/02/17 05:07:17;;;;;;;51.90;27.70;;;;;;;3.18;59.56;100743.53;5036079;28;20049;-61
2023/02/17 05:09:43;;;;;;;55.42;28.33;;;;;;;3.30;59.72;100744.59;5036336;28;20045;-61
2023/02/17 05:12:08;;;;;;;59.83;29.45;;;;;;;3.33;59.79;100747.03;5034716;28;20040;-63
2023/02/17 05:14:34;;;;;;;65.25;35.63;;;;;;;3.13;60.40;100740.34;5037266;28;20087;-60
2023/02/17 05:16:59;;;;;;;62.25;32.97;;;;;;;3.02;61.01;100748.81;5037366;28;20033;-61
2023/02/17 05:19:24;;;;;;;59.95;31.63;;;;;;;3.22;59.79;100749.44;5036366;28;20053;-60
2023/02/17 05:21:50;;;;;;;63.10;33.38;;;;;;;3.00;60.63;100745.44;5035846;28;20045;-62
2023/02/17 05:24:16;;;;;;;79.72;39.30;;;;;;;3.20;60.65;100744.28;5037284;28;20040;-61
2023/02/17 05:26:42;;;;;;;45.65;24.55;;;;;;;3.26;58.73;100745.69;5036690;28;20113;-61
2023/02/17 05:29:07;;;;;;;63.83;33.20;;;;;;;3.33;58.73;100749.63;5037368;28;20246;-61
2023/02/17 05:31:33;;;;;;;77.75;34.47;;;;;;;3.04;60.16;100740.84;5036162;28;20212;-60
2023/02/17 05:33:58;;;;;;;74.85;32.22;;;;;;;2.85;61.07;100746.31;5037477;28;20227;-62
2023/02/17 05:36:24;;;;;;;52.65;25.30;;;;;;;2.46;62.34;100746.81;5035468;28;20182;-61
2023/02/17 05:38:50;;;;;;;61.92;27.10;;;;;;;2.43;63.17;100745.22;5038218;28;20033;-60
2023/02/17 05:41:16;;;;;;;104.90;41.75;;;;;;;2.67;62.36;100747.38;5036664;28;20029;-61
2023/02/17 05:43:42;;;;;;;111.85;43.38;;;;;;;2.80;62.05;100751.81;5037665;28;20030;-63
2023/02/17 05:46:07;;;;;;;100.03;43.75;;;;;;;2.81;61.82;100758.72;5036891;28;20038;-63
2023/02/17 05:48:33;;;;;;;126.35;52.97;;;;;;;3.12;61.24;100759.56;5036533;28;20033;-61
2023/02/17 05:50:59;;;;;;;60.72;26.90;;;;;;;3.24;61.30;100758.88;5036171;28;20108;-62
2023/02/17 05:53:25;;;;;;;34.70;18.20;;;;;;;3.36;60.65;100767.78;5036340;28;20325;-61
2023/02/17 05:55:51;;;;;;;35.22;17.23;;;;;;;3.36;60.70;100768.63;5036896;28;20343;-63
2023/02/17 05:58:16;;;;;;;39.83;18.40;;;;;;;3.10;62.13;100753.59;5034958;28;20064;-63
2023/02/17 06:00:44;;;;;;;35.45;17.85;;;;;;;3.37;62.05;100767.69;5036987;28;20095;-61
2023/02/17 06:03:09;;;;;;;34.05;17.92;;;;;;;3.34;61.98;100780.13;5035007;28;20235;-61
2023/02/17 06:05:35;;;;;;;37.50;18.65;;;;;;;3.43;61.70;100764.72;5035207;28;20096;-60
2023/02/17 06:08:00;;;;;;;33.30;16.98;;;;;;;3.48;61.82;100780.97;5035291;28;20025;-62
2023/02/17 06:10:26;;;;;;;35.33;17.38;;;;;;;2.85;63.85;100788.16;5035812;28;20247;-62
2023/02/17 06:12:51;;;;;;;37.17;18.88;;;;;;;2.86;64.16;100782.00;5035425;28;20045;-61
2023/02/17 06:15:16;;;;;;;39.47;19.38;;;;;;;3.04;62.95;100780.94;5034630;28;20111;-60
2023/02/17 06:17:42;;;;;;;35.08;17.25;;;;;;;3.20;62.79;100784.38;5035471;28;20080;-60
2023/02/17 06:20:08;;;;;;;34.40;17.20;;;;;;;3.10;63.31;100790.22;5035679;28;20339;-62
2023/02/17 06:22:34;;;;;;;37.67;18.50;;;;;;;3.32;62.43;100776.75;5034234;28;20130;-62
2023/02/17 06:25:00;;;;;;;35.78;17.45;;;;;;;3.04;63.86;100764.41;5035087;28;20323;-61
2023/02/17 06:27:25;;;;;;;35.20;17.23;;;;;;;3.13;63.98;100771.75;5035178;28;20434;-60
2023/02/17 06:29:50;;;;;;;37.58;19.08;;;;;;;3.35;62.99;100780.03;5035391;28;20270;-61
2023/02/17 06:32:16;;;;;;;46.80;21.48;;;;;;;3.41;63.00;100779.66;5036058;28;20224;-62
2023/02/17 06:34:41;;;;;;;50.10;23.90;;;;;;;3.57;62.05;100797.91;5034010;28;20211;-62
2023/02/17 06:37:07;;;;;;;41.13;20.23;;;;;;;3.70;62.19;100793.63;5034574;28;20029;-61
2023/02/17 06:39:33;;;;;;;38.20;20.75;;;;;;;3.78;61.91;100793.16;5034560;28;20029;-61
2023/02/17 06:41:58;;;;;;;49.58;24.55;;;;;;;3.92;61.66;100790.53;5035265;28;20185;-62
2023/02/17 06:44:24;;;;;;;45.65;21.05;;;;;;;4.05;61.51;100799.34;5035386;28;20331;-62
2023/02/17 06:46:49;;;;;;;48.50;22.58;;;;;;;4.18;61.64;100794.19;5035262;28;20036;-60
2023/02/17 06:49:14;;;;;;;56.97;29.23;;;;;;;4.28;61.97;100797.09;5035430;28;20048;-62
2023/02/17 06:51:40;;;;;;;45.70;24.63;;;;;;;4.42;61.46;100797.91;5035956;28;20041;-61
2023/02/17 06:54:05;;;;;;;46.50;23.90;;;;;;;4.65;60.86;100788.56;5036356;28;20083;-63
2023/02/17 06:56:31;;;;;;;54.97;26.50;;;;;;;4.67;61.17;100793.72;5034422;28;20391;-61
2023/02/17 06:58:56;;;;;;;47.25;21.88;;;;;;;4.54;61.58;100795.44;5035319;28;20216;-61
2023/02/17 07:01:27;;;;;;;44.92;22.30;;;;;;;4.75;60.80;100789.66;5036686;28;20051;-61
2023/02/17 07:03:53;;;;;;;44.10;22.52;;;;;;;4.85;60.80;100795.16;5033778;28;20037;-60
2023/02/17 07:06:19;;;;;;;42.22;23.58;;;;;;;4.99;61.04;100794.25;5034065;28;20068;-61
2023/02/17 07:08:44;;;;;;;42.60;21.98;;;;;;;5.06;61.27;100785.88;5035503;28;20108;-62
2023/02/17 07:11:12;;;;;;;41.58;22.40;;;;;;;5.27;60.26;100783.63;5034155;28;20037;-61
2023/02/17 07:13:39;;;;;;;42.35;24.13;;;;;;;5.46;60.61;100785.84;5034351;28;20044;-61
2023/02/17 07:16:05;;;;;;;47.50;25.30;;;;;;;5.54;60.64;100778.28;5034936;28;20041;-60
2023/02/17 07:18:31;;;;;;;50.00;25.77;;;;;;;5.58;60.56;100779.75;5034426;28;20162;-62
2023/02/17 07:20:56;;;;;;;53.78;27.67;;;;;;;5.69;59.54;100771.13;5034493;28;20407;-63
2023/02/17 07:23:21;;;;;;;55.30;28.05;;;;;;;5.59;59.83;100783.22;5035155;28;20063;-61
2023/02/17 07:25:47;;;;;;;49.05;25.98;;;;;;;5.56;60.63;100786.06;5034164;28;20045;-62
2023/02/17 07:28:12;;;;;;;53.00;27.13;;;;;;;5.75;60.37;100795.22;5032905;28;20033;-61
2023/02/17 07:30:42;;;;;;;46.97;27.35;;;;;;;5.63;60.04;100787.31;5035323;28;20109;-61
2023/02/17 07:33:09;;;;;;;53.47;28.23;;;;;;;5.13;62.77;100783.66;5032631;28;20064;-63
2023/02/17 07:35:39;;;;;;;50.25;26.00;;;;;;;5.32;62.00;100791.19;5034692;28;20405;-63
2023/02/17 07:38:05;;;;;;;47.13;25.08;;;;;;;5.61;61.47;100786.59;5031029;28;20071;-62
2023/02/17 07:40:30;;;;;;;50.65;24.45;;;;;;;5.66;60.90;100787.13;5034654;28;20037;-62
2023/02/17 07:42:57;;;;;;;48.45;24.20;;;;;;;5.88;60.74;100784.69;5034130;28;20239;-61
2023/02/17 07:45:22;;;;;;;49.33;25.30;;;;;;;5.97;60.98;100791.13;5035078;28;20331;-61
2023/02/17 07:47:48;;;;;;;44.28;25.55;;;;;;;6.23;60.11;100784.03;5033219;28;20060;-63
2023/02/17 07:50:13;;;;;;;44.50;26.63;;;;;;;5.95;61.23;100795.66;5033660;28;20036;-62
2023/02/17 07:52:38;;;;;;;52.75;27.60;;;;;;;5.84;61.46;100795.53;5035387;28;20043;-61
2023/02/17 07:55:04;;;;;;;52.13;28.08;;;;;;;5.23;63.01;100794.44;5034351;28;20056;-62
2023/02/17 07:57:30;;;;;;;56.08;29.23;;;;;;;5.56;62.09;100804.44;5033989;28;20060;-61
2023/02/17 07:59:55;;;;;;;55.63;29.63;;;;;;;5.42;62.57;100789.63;5033539;28;20080;-61
2023/02/17 08:02:21;;;;;;;56.53;27.95;;;;;;;5.14;63.14;100795.84;5033592;28;20041;-61
2023/02/17 08:04:46;;;;;;;50.95;27.35;;;;;;;5.40;62.34;100794.16;5034312;28;20217;-63
2023/02/17 08:07:12;;;;;;;54.38;28.88;;;;;;;5.83;61.54;100786.78;5034377;28;20053;-63
2023/02/17 08:15:09;;;;;;;44.33;23.42;;;;;;;5.91;61.32;100795.03;5032407;28;20043;-61
2023/02/17 08:17:34;;;;;;;46.13;25.50;;;;;;;6.23;60.25;100797.19;5032866;28;20092;-63
2023/02/17 08:20:00;;;;;;;42.92;23.95;;;;;;;6.50;59.14;100795.25;5033688;28;20326;-63
2023/02/17 08:22:26;;;;;;;42.67;22.58;;;;;;;6.38;59.50;100796.97;5033138;28;20306;-61
2023/02/17 08:24:51;;;;;;;41.55;21.50;;;;;;;6.54;59.70;100801.97;5031326;28;20255;-61
2023/02/17 08:27:18;;;;;;;46.45;23.52;;;;;;;6.92;58.71;100803.59;5032214;28;20079;-61
2023/02/17 08:29:44;;;;;;;45.15;23.77;;;;;;;7.23;57.53;100803.00;5032702;28;20041;-61
2023/02/17 08:32:11;;;;;;;41.65;22.58;;;;;;;7.21;56.89;100804.91;5032928;28;20048;-61
2023/02/17 08:34:37;;;;;;;43.25;23.08;;;;;;;7.17;56.69;100805.25;5032173;28;20358;-61
2023/02/17 08:37:04;;;;;;;45.72;25.40;;;;;;;7.17;56.80;100789.44;5032071;28;20033;-64
2023/02/17 08:39:31;;;;;;;46.67;24.42;;;;;;;7.59;55.42;100793.28;5031146;28;20040;-64
2023/02/17 08:41:57;;;;;;;39.60;23.17;;;;;;;7.67;54.31;100793.53;5028789;28;20419;-61
2023/02/17 08:44:22;;;;;;;42.17;23.63;;;;;;;7.72;54.25;100788.75;5032465;28;20043;-63
2023/02/17 08:46:49;;;;;;;41.50;23.80;;;;;;;8.07;53.75;100788.66;5032990;28;20072;-61
2023/02/17 08:49:17;;;;;;;39.20;21.23;;;;;;;8.39;52.98;100783.53;5032896;28;20327;-63
2023/02/17 08:51:44;;;;;;;38.90;21.85;;;;;;;8.56;52.07;100782.16;5033762;28;20171;-61
2023/02/17 08:54:10;;;;;;;36.90;20.73;;;;;;;8.63;52.09;100778.91;5033824;28;20147;-61
2023/02/17 08:56:37;;;;;;;36.22;20.15;;;;;;;8.85;51.56;100777.16;5034729;28;20038;-62
2023/02/17 08:59:03;;;;;;;40.00;21.20;;;;;;;9.06;50.84;100785.09;5033361;28;20037;-61
2023/02/17 09:01:29;;;;;;;39.03;20.48;;;;;;;9.31;49.98;100779.47;5032721;28;20101;-61
2023/02/17 09:03:56;;;;;;;34.10;21.00;;;;;;;9.51;49.10;100777.81;5032250;28;20056;-62
2023/02/17 09:06:22;;;;;;;39.58;22.08;;;;;;;9.63;48.43;100779.41;5031935;28;20339;-61
2023/02/17 09:08:48;;;;;;;36.20;20.77;;;;;;;9.79;48.63;100786.88;5032436;28;20087;-61
2023/02/17 09:11:16;;;;;;;38.10;21.13;;;;;;;9.88;47.53;100778.97;5033077;28;20037;-63
2023/02/17 09:13:42;;;;;;;33.38;21.30;;;;;;;10.00;48.27;100766.50;5031885;28;20050;-62
2023/02/17 09:16:07;;;;;;;36.83;20.60;;;;;;;10.15;47.47;100761.69;5031837;28;20041;-61
2023/02/17 09:18:33;;;;;;;35.63;20.42;;;;;;;10.18;47.33;100764.06;5032963;28;20530;-60
2023/02/17 09:21:03;;;;;;;39.83;21.80;;;;;;;10.30;47.71;100751.56;5034202;28;20323;-61
2023/02/17 09:23:29;;;;;;;53.55;22.67;;;;;;;10.33;47.33;100757.44;5032879;28;20288;-63
2023/02/17 09:26:06;;;;;;;33.47;17.83;;;;;;;10.51;47.79;100753.19;5032975;28;20045;-61
2023/02/17 09:28:32;;;;;;;32.55;17.52;;;;;;;10.63;47.97;100759.19;5032708;28;20316;-61
2023/02/17 09:30:58;;;;;;;39.40;21.63;;;;;;;10.72;48.60;100741.63;5032669;28;20275;-63
2023/02/17 09:33:24;;;;;;;38.85;21.42;;;;;;;10.74;48.98;100751.13;5032712;28;20041;-62
2023/02/17 09:35:49;;;;;;;40.50;21.13;;;;;;;10.78;48.41;100749.88;5034332;28;20049;-62
2023/02/17 09:38:15;;;;;;;28.92;16.58;;;;;;;10.87;47.73;100742.88;5031876;28;20071;-61
2023/02/17 09:40:42;;;;;;;29.90;16.52;;;;;;;10.96;46.98;100744.69;5033709;28;20095;-62
2023/02/17 09:43:18;;;;;;;23.15;15.30;;;;;;;11.13;47.41;100743.16;5033078;28;20046;-62
2023/02/17 09:45:49;;;;;;;24.00;13.73;;;;;;;11.22;46.35;100733.50;5035189;28;20227;-61
2023/02/17 09:48:19;;;;;;;29.15;15.07;;;;;;;11.38;45.93;100736.41;5036619;28;20036;-61
2023/02/17 09:51:03;;;;;;;32.80;18.42;;;;;;;11.47;46.21;100730.28;5039700;28;20053;-64
2023/02/17 09:53:43;;;;;;;;;;;;;;;11.55;45.36;100724.25;5040667;28;20041;-62
2023/02/17 09:56:15;;;;;;;23.63;14.43;;;;;;;11.72;45.45;100713.72;5040585;28;19970;-61
2023/02/17 09:58:46;;;;;;;22.63;13.60;;;;;;;11.88;43.93;100712.28;5033102;28;20536;-62
2023/02/17 10:01:18;;;;;;;24.77;13.88;;;;;;;12.05;43.82;100695.56;5040495;28;20053;-62
2023/02/17 10:03:50;;;;;;;24.05;12.13;;;;;;;12.20;43.67;100701.22;5040223;28;20041;-61
2023/02/17 10:06:23;;;;;;;22.27;12.88;;;;;;;12.33;43.37;100691.06;5040321;28;20045;-62
2023/02/17 10:09:01;;;;;;;16.33;8.48;;;;;;;12.51;40.42;100689.28;5039967;28;20045;-64
2023/02/17 10:11:33;;;;;;;11.85;5.85;;;;;;;12.83;36.83;100678.13;5037842;28;20037;-63
2023/02/17 10:14:05;;;;;;;9.88;4.95;;;;;;;13.18;35.59;100673.75;5039274;28;20183;-62
2023/02/17 10:16:52;;;;;;;13.80;5.93;;;;;;;13.45;34.58;100668.25;5040517;28;20041;-62
2023/02/17 10:19:22;;;;;;;10.23;5.43;;;;;;;13.63;33.75;100662.88;5039087;28;20116;-62
2023/02/17 10:21:57;;;;;;;10.45;5.50;;;;;;;13.84;33.92;100655.31;5039438;28;20049;-62
2023/02/17 10:24:24;;;;;;;10.63;4.82;;;;;;;13.99;32.87;100655.53;5039405;28;20057;-63
2023/02/17 10:27:14;;;;;;;10.63;5.63;;;;;;;14.13;32.49;100643.44;5038836;28;20064;-62
2023/02/17 10:29:43;;;;;;;9.88;5.82;;;;;;;14.31;32.39;100644.13;5038779;28;20058;-64
2023/02/17 10:32:20;;;;;;;10.35;5.30;;;;;;;14.50;31.73;100648.34;5039156;28;20037;-63
2023/02/17 10:35:14;;;;;;;8.77;5.18;;;;;;;14.60;32.04;100641.88;5039776;28;20215;-63
2023/02/17 10:37:48;;;;;;;8.82;4.70;;;;;;;14.69;31.85;100640.88;5042591;28;20048;-62
2023/02/17 10:40:21;;;;;;;6.97;4.40;;;;;;;14.81;31.52;100630.72;5048714;28;20033;-61
2023/02/17 10:42:51;;;;;;;11.88;4.45;;;;;;;14.89;31.75;100624.53;5036687;28;20041;-62
2023/02/17 10:45:29;;;;;;;9.20;4.80;;;;;;;14.98;31.51;100623.53;5048263;28;20054;-61
2023/02/17 10:48:05;;;;;;;9.90;4.65;;;;;;;15.06;30.99;100615.50;5042160;28;20051;-61
2023/02/17 10:50:31;;;;;;;7.15;4.63;;;;;;;15.17;30.56;100603.66;5050268;28;20037;-62
2023/02/17 10:52:57;;;;;;;9.88;4.65;;;;;;;15.21;30.31;100604.97;5045393;28;20112;-64
2023/02/17 10:55:36;;;;;;;6.90;4.53;;;;;;;15.24;30.45;100592.13;5041968;28;20037;-63
2023/02/17 10:58:31;;;;;;;8.95;4.57;;;;;;;15.29;29.73;100594.28;5050156;28;20038;-63
2023/02/17 11:00:57;;;;;;;11.77;5.05;;;;;;;15.34;29.84;100589.25;5046633;28;20064;-62
2023/02/17 11:03:26;;;;;;;8.10;3.95;;;;;;;15.42;28.58;100585.72;5044635;28;20220;-62
2023/02/17 11:06:16;;;;;;;8.32;3.85;;;;;;;15.46;28.89;100579.88;5044187;28;20282;-61
2023/02/17 11:08:50;;;;;;;11.77;4.72;;;;;;;15.52;29.07;100568.50;5041880;28;20052;-62
2023/02/17 11:11:19;;;;;;;13.27;4.57;;;;;;;15.70;28.90;100580.81;5049966;28;20047;-63
2023/02/17 11:13:59;;;;;;;8.60;4.50;;;;;;;15.77;28.64;100579.13;5046110;28;20049;-62
2023/02/17 11:16:28;;;;;;;7.50;4.13;;;;;;;15.79;28.76;100577.09;5045531;28;20478;-61
2023/02/17 11:18:55;;;;;;;8.88;4.30;;;;;;;15.83;28.10;100562.38;5046255;28;20059;-62
2023/02/17 11:21:21;;;;;;;8.30;4.72;;;;;;;15.92;28.00;100570.16;5043395;28;20163;-62
2023/02/17 11:24:02;;;;;;;10.55;5.40;;;;;;;15.98;27.94;100568.63;5052982;28;20408;-62
2023/02/17 11:26:30;;;;;;;9.25;4.60;;;;;;;16.03;27.29;100566.25;5044612;28;20033;-62